首页
METAR-TAF:

METAR-TAF

机场 :

下瓦爾托夫斯克, 俄罗斯

纬度: 60-56N, 经度: 076-29E, 海拔: 54米

当前天气观测

该预报发布于27分钟前的01:30 UTC
风速8节,风向西北,在西之间变化
温度 11°C
湿度 71%
气压 1005 hPa
能见度10公里或以上
散云层高于2400英尺

METAR: USNN 310130Z 32004MPS 280V350 9999 SCT024 11/06 Q1005 R21/0///65 NOSIG RMK QFE749

时间: 06:57 (01:57 UTC)

预报

该预报发布于2小时和57分钟前的23:00 UTC
预报有效从31日的 00点(UTC)到 31日的 24点(UTC)
风速12节,风向西北,有时为27节阵风
能见度10公里或以上
散云层高于3000英尺
短暂存在
从 31日的 00点(UTC)到 31日的 03点(UTC)
能見度: 5000
散云层高于1000英尺
多云层高于1700英尺, 积雨云.
小阵雨
短暂存在
从 31日的 03点(UTC)到 31日的 15点(UTC)
风速14节,风向西转西北,有时为29节阵风
短暂存在
从 31日的 15点(UTC)到 31日的 24点(UTC)
能見度: 5000
散云层高于1000英尺
多云层高于1600英尺, 积雨云.
小阵雨

TAF: USNN 302300Z 3100/3124 31006G14MPS 9999 SCT030 TEMPO 3100/3103 5000 -SHRA SCT010 BKN017CB TEMPO 3103/3115 30007G15MPS TEMPO 3115/3124 5000 -SHRA SCT010 BKN016CB

超过4000个机场的气象观测和天气预报(METAR&TAF报告)。

可查询的气象台以黄色和红色小点在地图上表示。

将鼠标移到小点上方,可查看气象台名称。

然后点击查看天气观测和预报。

如需切换地图:点击带黑十字的绿色按钮放大地图;点击带横线的绿色按钮缩小地图;或者点击绿色箭头查看邻近地区的地图。


METAR-TAF: